createdAt,value
2019-06-26T00:00:17.577Z,57.30
2019-06-26T00:02:43.603Z,57.30
2019-06-26T00:05:09.532Z,57.30
2019-06-26T00:07:35.658Z,57.30
2019-06-26T00:10:01.615Z,57.30
2019-06-26T00:12:27.545Z,57.40
2019-06-26T00:14:53.473Z,57.30
2019-06-26T00:17:19.394Z,57.30
2019-06-26T00:19:45.406Z,57.30
2019-06-26T00:22:11.575Z,57.30
2019-06-26T00:24:37.491Z,57.30
2019-06-26T00:27:03.421Z,57.40
2019-06-26T00:29:29.373Z,57.40
2019-06-26T00:31:55.395Z,57.40
2019-06-26T00:34:21.327Z,57.40
2019-06-26T00:36:47.280Z,57.40
2019-06-26T00:39:13.327Z,57.30
2019-06-26T00:41:39.243Z,57.40
2019-06-26T00:44:05.202Z,57.40
2019-06-26T00:46:31.201Z,57.30
2019-06-26T00:48:57.200Z,57.30
2019-06-26T00:51:23.185Z,57.40
2019-06-26T00:53:49.141Z,57.40
2019-06-26T00:56:15.095Z,57.40
2019-06-26T00:58:41.152Z,57.40
2019-06-26T01:01:07.089Z,57.40
2019-06-26T01:03:33.055Z,57.50
2019-06-26T01:05:59.099Z,57.40
2019-06-26T01:08:25.050Z,57.40
2019-06-26T01:10:51.034Z,57.40
2019-06-26T01:13:17.060Z,57.40
2019-06-26T01:15:43.008Z,57.40
2019-06-26T01:18:08.947Z,57.40
2019-06-26T01:20:35.115Z,57.40
2019-06-26T01:23:01.161Z,57.40
2019-06-26T01:25:27.148Z,57.40
2019-06-26T01:27:53.195Z,57.40
2019-06-26T01:30:19.192Z,57.40
2019-06-26T01:32:45.240Z,57.40
2019-06-26T01:35:11.213Z,57.40
2019-06-26T01:37:37.202Z,57.50
2019-06-26T01:40:03.246Z,57.40
2019-06-26T01:42:29.185Z,57.40
2019-06-26T01:44:55.130Z,57.40
2019-06-26T01:47:21.127Z,57.40
2019-06-26T01:49:47.189Z,57.40
2019-06-26T01:52:13.255Z,57.40
2019-06-26T01:54:39.298Z,57.40
2019-06-26T01:57:05.374Z,57.40
2019-06-26T01:59:31.411Z,58.10
2019-06-26T02:01:57.371Z,57.40
2019-06-26T02:04:23.317Z,57.40
2019-06-26T02:06:49.281Z,57.40
2019-06-26T02:09:15.261Z,57.40
2019-06-26T02:11:41.214Z,57.50
2019-06-26T02:14:07.207Z,57.40
2019-06-26T02:16:33.167Z,57.40
2019-06-26T02:19:01.035Z,57.50
2019-06-26T02:21:27.055Z,57.40
2019-06-26T02:23:53.084Z,56.50
2019-06-26T02:26:19.055Z,57.40
2019-06-26T02:28:44.997Z,58.10
2019-06-26T02:31:10.987Z,57.50
2019-06-26T02:33:37.060Z,57.50
2019-06-26T02:36:03.091Z,57.40
2019-06-26T02:38:29.131Z,57.50
2019-06-26T02:40:55.133Z,57.40
2019-06-26T02:43:21.078Z,57.40
2019-06-26T02:45:47.023Z,57.40
2019-06-26T02:48:12.977Z,57.40
2019-06-26T02:50:39.051Z,57.40
2019-06-26T02:53:05.100Z,57.40
2019-06-26T02:55:31.155Z,57.40
2019-06-26T02:57:57.218Z,57.40
2019-06-26T03:00:23.275Z,57.90
2019-06-26T03:02:49.213Z,57.40
2019-06-26T03:05:15.176Z,58.10
2019-06-26T03:07:41.222Z,57.50
2019-06-26T03:10:07.190Z,57.50
2019-06-26T03:12:33.258Z,57.50
2019-06-26T03:15:08.720Z,57.50
2019-06-26T03:17:27.065Z,57.40
2019-06-26T03:19:53.025Z,57.40
2019-06-26T03:22:19.020Z,57.50
2019-06-26T03:24:45.047Z,57.50
2019-06-26T03:27:11.070Z,57.40
2019-06-26T03:29:37.031Z,57.40
2019-06-26T03:32:03.335Z,57.50
2019-06-26T03:34:29.376Z,57.50
2019-06-26T03:36:55.344Z,57.50
2019-06-26T03:39:21.300Z,57.50
2019-06-26T03:41:47.290Z,57.50
2019-06-26T03:44:13.347Z,57.50
2019-06-26T03:46:39.414Z,57.40
2019-06-26T03:49:05.346Z,57.50
2019-06-26T03:51:31.755Z,57.40
2019-06-26T03:53:57.815Z,57.30
2019-06-26T03:56:23.774Z,57.50
2019-06-26T03:58:49.740Z,57.40
2019-06-26T04:01:15.694Z,57.40
2019-06-26T04:03:41.632Z,57.40
2019-06-26T04:06:07.609Z,57.40
2019-06-26T04:08:33.568Z,57.50
2019-06-26T04:10:59.514Z,57.50
2019-06-26T04:13:25.462Z,57.40
2019-06-26T04:15:51.395Z,57.50
2019-06-26T04:18:17.352Z,57.50
2019-06-26T04:20:43.286Z,57.50
2019-06-26T04:23:09.251Z,57.50
2019-06-26T04:25:37.850Z,57.60
2019-06-26T04:28:06.283Z,58.20
2019-06-26T04:30:30.875Z,57.60
2019-06-26T04:32:56.834Z,57.60
2019-06-26T04:35:22.878Z,57.60
2019-06-26T04:37:48.825Z,57.60
2019-06-26T04:40:14.806Z,57.70
2019-06-26T04:42:40.771Z,57.60
2019-06-26T04:45:06.725Z,57.50
2019-06-26T04:47:32.663Z,57.50
2019-06-26T04:49:58.629Z,57.50
2019-06-26T04:52:24.799Z,57.50
2019-06-26T04:54:50.834Z,57.70
2019-06-26T04:57:16.815Z,57.60
2019-06-26T04:59:42.774Z,57.60
2019-06-26T05:02:08.821Z,57.90
2019-06-26T05:04:34.908Z,57.80
2019-06-26T05:07:00.879Z,57.90
2019-06-26T05:09:26.944Z,58.40
2019-06-26T05:11:53.043Z,58.30
2019-06-26T05:14:19.067Z,58.20
2019-06-26T05:16:45.049Z,58.20
2019-06-26T05:19:11.084Z,58.90
2019-06-26T05:21:37.039Z,58.30
2019-06-26T05:24:02.996Z,58.40
2019-06-26T05:26:29.053Z,58.50
2019-06-26T05:28:54.990Z,58.50
2019-06-26T05:31:21.447Z,59.00
2019-06-26T05:33:47.420Z,58.90
2019-06-26T05:36:13.457Z,59.70
2019-06-26T05:38:39.418Z,59.20
2019-06-26T05:41:05.400Z,59.20
2019-06-26T05:43:31.328Z,59.20
2019-06-26T05:45:57.310Z,59.10
2019-06-26T05:48:23.253Z,59.10
2019-06-26T05:50:49.259Z,59.10
2019-06-26T05:53:15.203Z,59.20
2019-06-26T05:55:41.161Z,59.10
2019-06-26T05:58:07.113Z,59.10
2019-06-26T06:00:33.114Z,59.00
2019-06-26T06:02:59.122Z,59.10
2019-06-26T06:05:25.092Z,59.00
2019-06-26T06:07:51.139Z,59.00
2019-06-26T06:10:17.215Z,59.00
2019-06-26T06:12:43.180Z,59.60
2019-06-26T06:15:09.249Z,59.00
2019-06-26T06:17:35.301Z,59.00
2019-06-26T06:20:01.258Z,58.90
2019-06-26T06:22:27.616Z,58.90
2019-06-26T06:24:53.843Z,58.80
2019-06-26T06:27:19.907Z,58.90
2019-06-26T06:29:45.846Z,58.80
2019-06-26T06:32:11.815Z,58.80
2019-06-26T06:34:37.768Z,58.70
2019-06-26T06:37:03.813Z,58.70
2019-06-26T06:39:29.781Z,58.70
2019-06-26T06:41:55.819Z,58.70
2019-06-26T06:44:21.788Z,58.60
2019-06-26T06:47:02.707Z,58.70
2019-06-26T06:49:15.584Z,58.70
2019-06-26T06:51:41.942Z,58.70
2019-06-26T06:54:07.908Z,58.60
2019-06-26T06:56:33.885Z,58.60
2019-06-26T06:58:59.848Z,58.60
2019-06-26T07:01:25.826Z,58.60
2019-06-26T07:03:51.854Z,58.50
2019-06-26T07:06:17.829Z,58.50
2019-06-26T07:08:44.218Z,59.30
2019-06-26T07:11:12.172Z,58.50
2019-06-26T07:13:38.108Z,58.50
2019-06-26T07:16:04.076Z,58.50
2019-06-26T07:18:30.231Z,58.50
2019-06-26T07:20:56.204Z,58.50
2019-06-26T07:23:22.256Z,58.40
2019-06-26T07:25:48.351Z,58.40
2019-06-26T07:28:14.440Z,58.40
2019-06-26T07:30:40.627Z,58.50
2019-06-26T07:33:06.699Z,58.40
2019-06-26T07:35:32.729Z,58.40
2019-06-26T07:38:00.204Z,58.40
2019-06-26T07:40:26.540Z,58.40
2019-06-26T07:42:52.474Z,58.40
2019-06-26T07:45:19.534Z,58.40
2019-06-26T07:47:45.584Z,58.40
2019-06-26T07:50:11.623Z,58.40
2019-06-26T07:52:37.699Z,58.40
2019-06-26T07:55:03.933Z,58.40
2019-06-26T07:57:30.098Z,58.40
2019-06-26T07:59:56.028Z,58.40
2019-06-26T08:02:21.963Z,58.40
2019-06-26T08:04:47.946Z,58.40
2019-06-26T08:07:14.015Z,58.40
2019-06-26T08:09:40.080Z,58.40
2019-06-26T08:12:06.475Z,58.40
2019-06-26T08:14:32.574Z,58.40
2019-06-26T08:16:58.558Z,58.70
2019-06-26T08:19:24.476Z,58.40
2019-06-26T08:21:50.507Z,58.30
2019-06-26T08:24:16.510Z,58.30
2019-06-26T08:26:42.477Z,58.30
2019-06-26T08:29:08.517Z,58.30
2019-06-26T08:31:34.494Z,58.30
2019-06-26T08:34:00.537Z,58.30
2019-06-26T08:36:26.557Z,58.20
2019-06-26T08:38:52.522Z,58.20
2019-06-26T08:41:18.543Z,58.20
2019-06-26T08:43:44.497Z,58.20
2019-06-26T08:46:12.455Z,58.20
2019-06-26T08:48:40.553Z,58.20
2019-06-26T08:51:06.362Z,58.10
2019-06-26T08:53:32.446Z,58.20
2019-06-26T08:55:58.379Z,58.20
2019-06-26T08:58:24.352Z,58.20
2019-06-26T09:00:50.304Z,58.20
2019-06-26T09:03:16.346Z,58.20
2019-06-26T09:05:47.951Z,58.20
2019-06-26T09:08:10.270Z,58.20
2019-06-26T09:10:36.432Z,58.10
2019-06-26T09:13:02.398Z,58.10
2019-06-26T09:15:28.451Z,58.10
2019-06-26T09:17:54.401Z,58.10
2019-06-26T09:20:20.362Z,58.10
2019-06-26T09:22:47.163Z,58.10
2019-06-26T09:25:21.618Z,58.00
2019-06-26T09:27:40.976Z,58.00
2019-06-26T09:30:07.076Z,58.00
2019-06-26T09:32:33.098Z,58.40
2019-06-26T09:34:59.049Z,58.00
2019-06-26T09:37:25.117Z,57.90
2019-06-26T09:39:51.139Z,58.00
2019-06-26T09:42:19.482Z,57.90
2019-06-26T09:44:44.944Z,57.90
2019-06-26T09:47:10.910Z,57.90
2019-06-26T09:49:36.954Z,57.90
2019-06-26T09:52:02.923Z,57.90
2019-06-26T09:54:28.960Z,57.90
2019-06-26T09:56:54.952Z,57.90
2019-06-26T09:59:20.897Z,57.90
2019-06-26T10:01:46.832Z,58.00
2019-06-26T10:04:12.812Z,57.90
2019-06-26T10:06:38.782Z,57.90
2019-06-26T10:09:04.736Z,57.90
2019-06-26T10:11:33.659Z,57.90
2019-06-26T10:13:59.720Z,57.90
2019-06-26T10:16:25.681Z,57.80
2019-06-26T10:19:05.620Z,57.90
2019-06-26T10:21:23.504Z,57.90
2019-06-26T10:23:47.608Z,57.90
2019-06-26T10:26:13.686Z,57.80
2019-06-26T10:28:39.692Z,57.90
2019-06-26T10:31:05.846Z,57.90
2019-06-26T10:33:33.783Z,57.80
2019-06-26T10:35:59.767Z,57.80
2019-06-26T10:38:25.810Z,57.90
2019-06-26T10:40:51.774Z,57.80
2019-06-26T10:43:17.833Z,57.80
2019-06-26T10:45:43.899Z,57.90
2019-06-26T10:48:09.838Z,57.80
2019-06-26T10:50:48.213Z,57.70
2019-06-26T10:53:03.793Z,57.80
2019-06-26T10:55:29.837Z,57.80
2019-06-26T10:57:55.793Z,57.80
2019-06-26T11:00:21.740Z,57.80
2019-06-26T11:02:47.687Z,57.80
2019-06-26T11:05:13.747Z,57.70
2019-06-26T11:07:39.735Z,57.70
2019-06-26T11:10:05.821Z,57.80
2019-06-26T11:12:31.789Z,57.70
2019-06-26T11:14:57.742Z,57.80
2019-06-26T11:17:23.763Z,57.70
2019-06-26T11:19:49.734Z,57.80
2019-06-26T11:22:15.813Z,57.70
2019-06-26T11:24:41.799Z,57.70
2019-06-26T11:27:07.815Z,57.70
2019-06-26T11:29:33.780Z,57.60
2019-06-26T11:31:59.761Z,57.60
2019-06-26T11:34:25.719Z,57.70
2019-06-26T11:37:03.226Z,57.60
2019-06-26T11:39:19.524Z,57.60
2019-06-26T11:41:45.617Z,57.60
2019-06-26T11:44:11.652Z,57.60
2019-06-26T11:46:37.595Z,57.70
2019-06-26T11:49:03.580Z,57.60
2019-06-26T11:51:29.862Z,57.60
2019-06-26T11:53:58.884Z,57.50
2019-06-26T11:56:23.672Z,57.60
2019-06-26T11:58:49.621Z,57.70
2019-06-26T12:01:15.675Z,57.70
2019-06-26T12:03:41.601Z,57.60
2019-06-26T12:06:17.929Z,57.80
2019-06-26T12:08:35.407Z,58.50
2019-06-26T12:11:01.389Z,58.80
2019-06-26T12:13:27.328Z,58.90
2019-06-26T12:15:53.549Z,59.00
2019-06-26T12:18:21.867Z,59.20
2019-06-26T12:20:47.896Z,59.30
2019-06-26T12:23:13.980Z,60.00
2019-06-26T12:25:39.969Z,59.40
2019-06-26T12:28:06.019Z,59.40
2019-06-26T12:30:32.081Z,59.50
2019-06-26T12:33:03.517Z,59.60
2019-06-26T12:35:25.971Z,59.60
2019-06-26T12:37:52.008Z,59.70
2019-06-26T12:40:18.073Z,59.80
2019-06-26T12:42:44.111Z,59.90
2019-06-26T12:45:10.086Z,60.60
2019-06-26T12:47:36.147Z,59.90
2019-06-26T12:50:02.874Z,60.60
2019-06-26T12:52:28.984Z,59.90
2019-06-26T12:54:54.957Z,60.00
2019-06-26T12:57:20.924Z,59.90
2019-06-26T12:59:56.497Z,60.00
2019-06-26T13:02:14.767Z,59.90
2019-06-26T13:04:43.620Z,60.20
2019-06-26T13:07:08.589Z,59.90
2019-06-26T13:09:34.538Z,59.70
2019-06-26T13:12:00.471Z,59.50
2019-06-26T13:14:26.421Z,59.40
2019-06-26T13:16:52.397Z,59.20
2019-06-26T13:19:18.354Z,59.10
2019-06-26T13:21:44.614Z,59.00
2019-06-26T13:24:10.554Z,58.90
2019-06-26T13:26:36.519Z,58.90
2019-06-26T13:29:02.562Z,58.80
2019-06-26T13:31:28.613Z,58.70
2019-06-26T13:33:54.568Z,58.70
2019-06-26T13:36:20.532Z,58.70
2019-06-26T13:38:46.516Z,58.70
2019-06-26T13:41:12.482Z,58.60
2019-06-26T13:43:38.448Z,58.70
2019-06-26T13:46:04.387Z,58.60
2019-06-26T13:48:30.353Z,58.60
2019-06-26T13:51:08.987Z,58.60
2019-06-26T13:53:24.280Z,58.50
2019-06-26T13:55:50.237Z,58.50
2019-06-26T13:58:16.272Z,58.50
2019-06-26T14:00:42.232Z,58.60
2019-06-26T14:03:08.192Z,58.50
2019-06-26T14:05:34.127Z,58.60
2019-06-26T14:08:00.084Z,58.60
2019-06-26T14:10:26.156Z,58.60
2019-06-26T14:12:52.102Z,58.60
2019-06-26T14:15:18.152Z,58.60
2019-06-26T14:17:44.220Z,58.60
2019-06-26T14:20:10.474Z,58.60
2019-06-26T14:22:36.447Z,58.60
2019-06-26T14:25:02.403Z,58.60
2019-06-26T14:27:28.364Z,58.60
2019-06-26T14:29:54.310Z,58.90
2019-06-26T14:32:20.275Z,58.60
2019-06-26T14:34:46.215Z,58.60
2019-06-26T14:37:12.169Z,58.60
2019-06-26T14:39:40.947Z,58.60
2019-06-26T14:42:06.030Z,58.60
2019-06-26T14:44:32.051Z,58.60
2019-06-26T14:46:58.039Z,58.60
2019-06-26T14:49:24.001Z,58.60
2019-06-26T14:51:49.949Z,58.60
2019-06-26T14:54:15.990Z,58.60
2019-06-26T14:56:41.963Z,58.60
2019-06-26T14:59:08.027Z,58.70
2019-06-26T15:01:33.974Z,58.60
2019-06-26T15:03:59.964Z,58.60
2019-06-26T15:06:25.992Z,58.60
2019-06-26T15:08:51.964Z,58.60
2019-06-26T15:11:18.005Z,58.60
2019-06-26T15:13:43.955Z,58.50
2019-06-26T15:16:09.898Z,58.60
2019-06-26T15:18:35.849Z,58.60
2019-06-26T15:21:05.566Z,58.60
2019-06-26T15:23:31.621Z,59.20
2019-06-26T15:25:57.554Z,58.60
2019-06-26T15:28:23.540Z,58.60
2019-06-26T15:30:49.494Z,58.60
2019-06-26T15:33:15.558Z,58.60
2019-06-26T15:35:41.712Z,58.60
2019-06-26T15:38:07.768Z,58.60
2019-06-26T15:40:33.743Z,58.60
2019-06-26T15:42:59.872Z,58.60
2019-06-26T15:45:25.944Z,59.30
2019-06-26T15:47:51.996Z,58.70
2019-06-26T15:50:18.049Z,58.60
2019-06-26T15:52:44.019Z,58.60
2019-06-26T15:55:10.040Z,58.80
2019-06-26T15:57:36.110Z,58.90
2019-06-26T16:00:02.804Z,59.70
2019-06-26T16:02:29.031Z,58.80
2019-06-26T16:04:55.018Z,58.70
2019-06-26T16:07:21.069Z,58.70
2019-06-26T16:09:47.096Z,58.70
2019-06-26T16:12:13.146Z,58.80
2019-06-26T16:14:39.224Z,58.80
2019-06-26T16:17:09.985Z,58.80
2019-06-26T16:19:35.949Z,58.80
2019-06-26T16:22:01.940Z,58.80
2019-06-26T16:24:30.162Z,58.90
2019-06-26T16:26:55.886Z,59.00
2019-06-26T16:29:21.944Z,59.10
2019-06-26T16:31:48.002Z,59.80
2019-06-26T16:34:14.041Z,59.80
2019-06-26T16:36:39.982Z,59.80
2019-06-26T16:39:06.070Z,60.00
2019-06-26T16:41:32.149Z,59.50
2019-06-26T16:43:58.183Z,59.20
2019-06-26T16:46:24.135Z,59.10
2019-06-26T16:48:50.118Z,59.00
2019-06-26T16:51:16.072Z,58.90
2019-06-26T16:53:42.046Z,58.90
2019-06-26T16:56:08.036Z,58.80
2019-06-26T16:58:33.977Z,58.80
2019-06-26T17:00:59.943Z,58.80
2019-06-26T17:03:25.906Z,58.80
2019-06-26T17:05:51.869Z,58.70
2019-06-26T17:08:17.827Z,58.70
2019-06-26T17:10:43.962Z,59.50
2019-06-26T17:13:10.106Z,59.10
2019-06-26T17:15:36.165Z,59.00
2019-06-26T17:18:02.494Z,58.90
2019-06-26T17:20:28.609Z,59.00
2019-06-26T17:23:05.207Z,59.10
2019-06-26T17:25:22.417Z,59.20
2019-06-26T17:27:48.385Z,59.10
2019-06-26T17:30:14.354Z,59.00
2019-06-26T17:32:40.325Z,59.00
2019-06-26T17:35:06.292Z,59.00
2019-06-26T17:37:32.330Z,59.10
2019-06-26T17:39:58.290Z,59.00
2019-06-26T17:42:24.235Z,59.10
2019-06-26T17:44:50.199Z,59.90
2019-06-26T17:47:16.151Z,59.20
2019-06-26T17:49:42.144Z,58.90
2019-06-26T17:52:08.204Z,59.00
2019-06-26T17:54:34.162Z,59.00
2019-06-26T17:57:00.135Z,59.20
2019-06-26T17:59:26.182Z,59.10
2019-06-26T18:01:52.175Z,59.00
2019-06-26T18:04:18.488Z,59.00
2019-06-26T18:06:44.471Z,58.90
2019-06-26T18:09:12.323Z,59.00
2019-06-26T18:11:38.317Z,58.90
2019-06-26T18:14:04.266Z,58.80
2019-06-26T18:16:30.229Z,59.10
2019-06-26T18:18:57.000Z,59.00
2019-06-26T18:21:23.051Z,59.00
2019-06-26T18:23:49.018Z,59.10
2019-06-26T18:26:15.114Z,59.10
2019-06-26T18:28:41.322Z,59.10
2019-06-26T18:31:07.432Z,59.20
2019-06-26T18:33:33.500Z,59.20
2019-06-26T18:35:59.475Z,59.30
2019-06-26T18:38:25.454Z,59.30
2019-06-26T18:40:51.506Z,59.20
2019-06-26T18:43:17.464Z,59.20
2019-06-26T18:45:43.428Z,59.30
2019-06-26T18:48:09.374Z,59.10
2019-06-26T18:50:35.341Z,59.20
2019-06-26T18:53:01.435Z,59.20
2019-06-26T18:55:27.504Z,59.40
2019-06-26T18:57:53.478Z,60.40
2019-06-26T19:00:19.461Z,60.30
2019-06-26T19:02:45.418Z,59.60
2019-06-26T19:05:11.493Z,60.00
2019-06-26T19:07:37.471Z,59.90
2019-06-26T19:10:03.428Z,59.90
2019-06-26T19:12:29.381Z,59.80
2019-06-26T19:14:55.412Z,59.50
2019-06-26T19:17:21.448Z,59.60
2019-06-26T19:19:47.458Z,59.50
2019-06-26T19:22:13.541Z,59.50
2019-06-26T19:24:39.501Z,59.50
2019-06-26T19:27:07.731Z,59.50
2019-06-26T19:29:33.454Z,59.50
2019-06-26T19:31:59.488Z,59.40
2019-06-26T19:34:25.441Z,59.40
2019-06-26T19:36:51.402Z,59.50
2019-06-26T19:39:20.527Z,59.40
2019-06-26T19:41:45.218Z,59.40
2019-06-26T19:44:11.183Z,59.50
2019-06-26T19:46:37.154Z,59.40
2019-06-26T19:49:03.202Z,59.30
2019-06-26T19:51:29.179Z,59.30
2019-06-26T19:53:55.172Z,59.20
2019-06-26T19:56:21.202Z,59.20
2019-06-26T19:58:47.168Z,59.20
2019-06-26T20:01:13.164Z,59.20
2019-06-26T20:03:39.184Z,59.90
2019-06-26T20:06:05.155Z,59.30
2019-06-26T20:08:31.116Z,59.50
2019-06-26T20:10:57.103Z,60.00
2019-06-26T20:13:23.169Z,59.40
2019-06-26T20:15:49.120Z,59.40
2019-06-26T20:18:15.192Z,59.30
2019-06-26T20:20:41.231Z,59.30
2019-06-26T20:23:07.200Z,59.30
2019-06-26T20:25:33.245Z,59.30
2019-06-26T20:27:59.295Z,59.20
2019-06-26T20:30:25.282Z,59.20
2019-06-26T20:32:51.244Z,59.20
2019-06-26T20:35:17.280Z,59.20
2019-06-26T20:37:43.253Z,59.00
2019-06-26T20:40:09.308Z,59.20
2019-06-26T20:42:35.287Z,59.10
2019-06-26T20:45:01.223Z,59.00
2019-06-26T20:47:27.211Z,59.10
2019-06-26T20:49:53.723Z,59.00
2019-06-26T20:52:19.888Z,59.60
2019-06-26T20:54:59.995Z,59.00
2019-06-26T20:57:13.851Z,59.10
2019-06-26T20:59:39.888Z,59.10
2019-06-26T21:02:05.870Z,59.20
2019-06-26T21:04:31.828Z,59.10
2019-06-26T21:06:57.843Z,59.50
2019-06-26T21:09:23.838Z,59.00
2019-06-26T21:11:49.895Z,59.00
2019-06-26T21:14:15.946Z,59.10
2019-06-26T21:16:41.938Z,59.30
2019-06-26T21:19:08.006Z,59.10
2019-06-26T21:21:33.975Z,59.20
2019-06-26T21:23:59.934Z,59.20
2019-06-26T21:26:25.876Z,59.10
2019-06-26T21:28:51.924Z,59.10
2019-06-26T21:31:17.911Z,59.10
2019-06-26T21:33:44.085Z,59.10
2019-06-26T21:36:10.083Z,59.10
2019-06-26T21:38:38.568Z,59.10
2019-06-26T21:41:04.635Z,59.00
2019-06-26T21:43:30.630Z,59.10
2019-06-26T21:45:56.593Z,59.10
2019-06-26T21:48:22.597Z,59.10
2019-06-26T21:50:48.646Z,59.00
2019-06-26T21:53:14.610Z,59.00
2019-06-26T21:55:40.677Z,59.00
2019-06-26T21:58:06.661Z,59.00
2019-06-26T22:00:34.012Z,59.10
2019-06-26T22:03:00.099Z,59.10
2019-06-26T22:05:26.292Z,59.00
2019-06-26T22:07:52.339Z,59.00
2019-06-26T22:10:18.320Z,59.00
2019-06-26T22:12:44.391Z,59.00
2019-06-26T22:15:10.538Z,59.00
2019-06-26T22:17:36.482Z,59.30
2019-06-26T22:20:02.457Z,59.00
2019-06-26T22:22:28.418Z,59.00
2019-06-26T22:24:54.395Z,59.10
2019-06-26T22:27:20.366Z,59.00
2019-06-26T22:29:46.321Z,59.00
2019-06-26T22:32:12.297Z,59.10
2019-06-26T22:34:38.363Z,59.00
2019-06-26T22:37:04.317Z,59.00
2019-06-26T22:39:30.278Z,59.10
2019-06-26T22:41:56.227Z,59.00
2019-06-26T22:44:22.296Z,59.00
2019-06-26T22:46:48.232Z,59.10
2019-06-26T22:49:14.189Z,59.00
2019-06-26T22:51:40.127Z,59.00
2019-06-26T22:54:06.109Z,59.00
2019-06-26T22:56:32.048Z,59.00
2019-06-26T22:58:58.009Z,59.10
2019-06-26T23:01:23.956Z,59.10
2019-06-26T23:03:49.974Z,59.00
2019-06-26T23:06:16.077Z,59.00
2019-06-26T23:08:42.022Z,59.00
2019-06-26T23:11:07.977Z,59.00
2019-06-26T23:13:33.951Z,59.00
2019-06-26T23:15:59.976Z,59.10
2019-06-26T23:18:26.093Z,59.00
2019-06-26T23:20:52.269Z,59.00
2019-06-26T23:23:18.355Z,59.70
2019-06-26T23:25:44.318Z,59.10
2019-06-26T23:28:10.370Z,59.10
2019-06-26T23:30:36.328Z,59.10
2019-06-26T23:33:02.267Z,59.00
2019-06-26T23:35:28.233Z,59.00
2019-06-26T23:37:54.204Z,59.00
2019-06-26T23:40:20.179Z,59.10
2019-06-26T23:42:46.193Z,59.00
2019-06-26T23:45:12.189Z,59.00
2019-06-26T23:47:38.278Z,59.00
2019-06-26T23:50:04.318Z,59.10
2019-06-26T23:52:30.331Z,59.10
2019-06-26T23:54:56.261Z,59.00
2019-06-26T23:57:22.215Z,59.10
2019-06-26T23:59:48.204Z,59.00
